createdAt,value
2023-01-08T00:01:14.878Z,78.14
2023-01-08T00:03:50.035Z,78.09
2023-01-08T00:06:21.236Z,78.11
2023-01-08T00:08:49.195Z,78.11
2023-01-08T00:11:17.788Z,78.03
2023-01-08T00:13:45.727Z,78.13
2023-01-08T00:16:16.871Z,78.14
2023-01-08T00:18:46.507Z,78.18
2023-01-08T00:21:14.426Z,78.11
2023-01-08T00:23:42.375Z,78.02
2023-01-08T00:26:11.566Z,78.08
2023-01-08T00:28:40.290Z,78.13
2023-01-08T00:31:10.448Z,78.16
2023-01-08T00:33:38.637Z,78.20
2023-01-08T00:36:12.588Z,78.20
2023-01-08T00:38:41.433Z,78.18
2023-01-08T00:41:09.815Z,78.12
2023-01-08T00:43:37.738Z,78.31
2023-01-08T00:46:06.857Z,78.38
2023-01-08T00:48:38.696Z,78.41
2023-01-08T00:51:08.704Z,78.42
2023-01-08T00:53:38.236Z,78.33
2023-01-08T00:56:09.024Z,78.51
2023-01-08T00:58:37.359Z,78.46
2023-01-08T01:01:15.480Z,78.35
2023-01-08T01:03:43.472Z,78.41
2023-01-08T01:06:13.272Z,78.39
2023-01-08T01:08:41.322Z,78.37
2023-01-08T01:11:20.449Z,78.45
2023-01-08T01:13:48.629Z,78.54
2023-01-08T01:16:17.071Z,78.66
2023-01-08T01:18:45.071Z,78.78
2023-01-08T01:21:22.976Z,78.65
2023-01-08T01:23:53.544Z,78.60
2023-01-08T01:26:22.327Z,78.58
2023-01-08T01:28:52.625Z,78.59
2023-01-08T01:31:21.271Z,78.66
2023-01-08T01:33:49.230Z,78.78
2023-01-08T01:36:19.298Z,78.67
2023-01-08T01:38:49.431Z,78.77
2023-01-08T01:41:29.453Z,78.77
2023-01-08T01:44:00.542Z,78.76
2023-01-08T01:46:37.525Z,78.87
2023-01-08T01:49:15.848Z,78.94
2023-01-08T01:51:53.613Z,78.99
2023-01-08T01:54:22.643Z,78.99
2023-01-08T01:56:50.799Z,79.17
2023-01-08T01:59:18.748Z,79.16
2023-01-08T02:01:47.065Z,79.18
2023-01-08T02:04:15.261Z,79.20
2023-01-08T02:06:54.530Z,79.23
2023-01-08T02:09:42.099Z,79.15
2023-01-08T02:12:31.072Z,79.18
2023-01-08T02:15:24.329Z,79.24
2023-01-08T02:18:39.788Z,79.18
2023-01-08T02:21:16.271Z,79.28
2023-01-08T02:24:10.451Z,79.42
2023-01-08T02:26:38.719Z,79.46
2023-01-08T02:29:10.011Z,79.58
2023-01-08T02:31:41.056Z,79.49
2023-01-08T02:34:10.705Z,79.66
2023-01-08T02:36:52.473Z,79.63
2023-01-08T02:39:38.339Z,79.56
2023-01-08T02:42:43.031Z,79.80
2023-01-08T02:45:25.815Z,79.72
2023-01-08T02:47:59.754Z,79.64
2023-01-08T02:50:37.668Z,79.74
2023-01-08T02:53:19.321Z,79.79
2023-01-08T02:55:52.290Z,79.84
2023-01-08T02:58:23.335Z,79.91
2023-01-08T03:00:52.224Z,79.82
2023-01-08T03:03:27.222Z,79.92
2023-01-08T03:06:03.000Z,79.91
2023-01-08T03:08:34.491Z,80.00
2023-01-08T03:11:11.797Z,80.12
2023-01-08T03:13:54.716Z,80.09
2023-01-08T03:16:49.003Z,80.12
2023-01-08T03:19:26.090Z,80.18
2023-01-08T03:21:54.125Z,80.33
2023-01-08T03:24:25.939Z,80.35
2023-01-08T03:26:58.530Z,80.36
2023-01-08T03:29:27.868Z,80.36
2023-01-08T03:32:03.057Z,80.32
2023-01-08T03:34:33.070Z,80.34
2023-01-08T03:37:04.671Z,80.30
2023-01-08T03:39:45.159Z,80.28
2023-01-08T03:42:16.584Z,80.30
2023-01-08T03:44:44.556Z,80.34
2023-01-08T03:47:14.460Z,80.20
2023-01-08T03:49:44.476Z,80.33
2023-01-08T03:52:26.912Z,80.41
2023-01-08T03:54:55.753Z,80.39
2023-01-08T03:57:23.722Z,80.53
2023-01-08T03:59:51.734Z,80.53
2023-01-08T04:02:19.786Z,80.54
2023-01-08T04:04:48.314Z,80.57
2023-01-08T04:07:16.349Z,80.56
2023-01-08T04:09:44.183Z,80.54
2023-01-08T04:12:12.164Z,80.51
2023-01-08T04:14:40.028Z,80.49
2023-01-08T04:17:12.181Z,80.57
2023-01-08T04:19:40.016Z,80.56
2023-01-08T04:22:10.874Z,80.65
2023-01-08T04:24:38.852Z,80.65
2023-01-08T04:27:06.726Z,80.61
2023-01-08T04:29:34.628Z,80.72
2023-01-08T04:32:02.549Z,80.61
2023-01-08T04:34:30.431Z,80.57
2023-01-08T04:36:58.816Z,80.49
2023-01-08T04:39:26.735Z,80.67
2023-01-08T04:41:54.660Z,80.75
2023-01-08T04:44:22.891Z,80.64
2023-01-08T04:46:50.805Z,80.57
2023-01-08T04:49:18.935Z,80.56
2023-01-08T04:51:46.878Z,80.53
2023-01-08T04:54:14.804Z,80.64
2023-01-08T04:56:42.646Z,80.69
2023-01-08T04:59:10.536Z,80.71
2023-01-08T05:01:38.558Z,80.67
2023-01-08T05:04:06.472Z,80.73
2023-01-08T05:06:34.353Z,80.78
2023-01-08T05:09:02.939Z,80.74
2023-01-08T05:11:30.844Z,80.80
2023-01-08T05:13:58.710Z,80.81
2023-01-08T05:16:26.585Z,80.90
2023-01-08T05:18:54.403Z,80.87
2023-01-08T05:21:22.292Z,80.87
2023-01-08T05:24:22.455Z,80.93
2023-01-08T05:26:50.331Z,80.94
2023-01-08T05:29:18.404Z,81.00
2023-01-08T05:31:46.400Z,81.05
2023-01-08T05:34:14.285Z,81.12
2023-01-08T05:36:43.318Z,81.02
2023-01-08T05:39:11.280Z,81.02
2023-01-08T05:41:39.547Z,81.09
2023-01-08T05:44:07.657Z,81.16
2023-01-08T05:46:35.802Z,81.12
2023-01-08T05:49:03.889Z,81.22
2023-01-08T05:51:31.778Z,81.19
2023-01-08T05:53:59.650Z,81.32
2023-01-08T05:56:27.549Z,81.38
2023-01-08T05:58:56.054Z,81.39
2023-01-08T06:01:24.025Z,81.38
2023-01-08T06:03:56.053Z,81.51
2023-01-08T06:06:24.049Z,81.54
2023-01-08T06:08:52.148Z,81.50
2023-01-08T06:11:20.120Z,81.56
2023-01-08T06:13:48.162Z,81.53
2023-01-08T06:16:17.587Z,81.49
2023-01-08T06:18:45.759Z,81.45
2023-01-08T06:21:13.927Z,81.38
2023-01-08T06:23:41.911Z,81.49
2023-01-08T06:26:10.216Z,81.51
2023-01-08T06:28:38.228Z,81.48
2023-01-08T06:31:06.268Z,81.52
2023-01-08T06:33:34.245Z,81.57
2023-01-08T06:36:04.633Z,81.59
2023-01-08T06:38:34.753Z,81.42
2023-01-08T06:41:08.608Z,81.60
2023-01-08T06:43:37.869Z,81.63
2023-01-08T06:46:07.114Z,81.69
2023-01-08T06:48:35.931Z,81.70
2023-01-08T06:51:04.978Z,81.70
2023-01-08T06:53:32.972Z,81.78
2023-01-08T06:56:03.343Z,81.75
2023-01-08T06:58:31.576Z,81.64
2023-01-08T07:00:59.658Z,81.64
2023-01-08T07:03:27.712Z,81.63
2023-01-08T07:05:56.632Z,81.78
2023-01-08T07:08:24.783Z,81.71
2023-01-08T07:10:52.696Z,81.69
2023-01-08T07:13:22.765Z,81.74
2023-01-08T07:15:50.852Z,81.80
2023-01-08T07:18:18.950Z,81.80
2023-01-08T07:20:48.850Z,81.78
2023-01-08T07:23:16.810Z,81.71
2023-01-08T07:25:44.805Z,81.81
2023-01-08T07:28:13.362Z,81.69
2023-01-08T07:30:41.520Z,81.70
2023-01-08T07:33:09.511Z,82.39
2023-01-08T07:35:39.079Z,83.58
2023-01-08T07:38:07.185Z,82.67
2023-01-08T07:40:35.269Z,81.99
2023-01-08T07:43:04.833Z,81.81
2023-01-08T07:45:32.927Z,81.71
2023-01-08T07:48:00.989Z,81.71
2023-01-08T07:50:29.360Z,81.60
2023-01-08T07:53:01.498Z,81.56
2023-01-08T07:55:30.936Z,81.53
2023-01-08T07:57:59.430Z,81.65
2023-01-08T08:00:27.611Z,81.67
2023-01-08T08:02:55.689Z,81.58
2023-01-08T08:05:23.985Z,81.52
2023-01-08T08:07:51.902Z,81.53
2023-01-08T08:10:19.879Z,81.51
2023-01-08T08:12:48.000Z,81.44
2023-01-08T08:15:16.089Z,81.48
2023-01-08T08:17:47.905Z,81.42
2023-01-08T08:20:16.285Z,81.42
2023-01-08T08:22:44.853Z,81.35
2023-01-08T08:25:15.311Z,81.20
2023-01-08T08:27:44.114Z,81.25
2023-01-08T08:30:13.144Z,81.17
2023-01-08T08:32:41.095Z,81.07
2023-01-08T08:35:09.864Z,81.00
2023-01-08T08:37:37.861Z,80.84
2023-01-08T08:40:06.496Z,80.94
2023-01-08T08:42:34.476Z,80.78
2023-01-08T08:45:02.532Z,80.67
2023-01-08T08:47:30.525Z,80.44
2023-01-08T08:49:58.540Z,80.49
2023-01-08T08:52:26.434Z,80.54
2023-01-08T08:54:54.335Z,80.44
2023-01-08T08:57:25.999Z,80.45
2023-01-08T08:59:53.965Z,80.57
2023-01-08T09:02:22.151Z,81.37
2023-01-08T09:04:50.240Z,84.17
2023-01-08T09:07:18.271Z,84.19
2023-01-08T09:09:46.282Z,81.95
2023-01-08T09:12:14.253Z,80.73
2023-01-08T09:14:42.253Z,80.14
2023-01-08T09:17:10.255Z,79.86
2023-01-08T09:19:38.877Z,79.79
2023-01-08T09:22:06.988Z,79.73
2023-01-08T09:24:34.894Z,79.88
2023-01-08T09:27:03.025Z,79.72
2023-01-08T09:29:31.000Z,79.70
2023-01-08T09:32:00.619Z,79.48
2023-01-08T09:34:29.973Z,79.25
2023-01-08T09:36:57.925Z,79.18
2023-01-08T09:39:25.855Z,79.17
2023-01-08T09:41:55.319Z,79.34
2023-01-08T09:44:29.904Z,79.20
2023-01-08T09:46:58.698Z,79.11
2023-01-08T09:49:38.676Z,79.01
2023-01-08T09:52:09.317Z,78.97
2023-01-08T09:54:37.287Z,78.89
2023-01-08T09:57:05.608Z,78.80
2023-01-08T09:59:33.697Z,78.61
2023-01-08T10:02:01.768Z,78.77
2023-01-08T10:04:30.147Z,78.77
2023-01-08T10:07:11.791Z,78.61
2023-01-08T10:09:40.314Z,78.30
2023-01-08T10:12:12.785Z,78.41
2023-01-08T10:14:48.118Z,78.22
2023-01-08T10:17:37.471Z,78.44
2023-01-08T10:20:20.904Z,78.16
2023-01-08T10:22:50.055Z,78.07
2023-01-08T10:25:23.271Z,78.17
2023-01-08T10:28:00.155Z,78.22
2023-01-08T10:30:30.828Z,77.99
2023-01-08T10:33:06.516Z,77.97
2023-01-08T10:35:40.826Z,77.95
2023-01-08T10:38:32.785Z,77.69
2023-01-08T10:41:09.229Z,77.62
2023-01-08T10:43:49.670Z,77.39
2023-01-08T10:46:36.570Z,77.39
2023-01-08T10:49:06.549Z,77.37
2023-01-08T10:51:34.635Z,77.35
2023-01-08T10:54:15.545Z,77.22
2023-01-08T10:56:44.952Z,77.04
2023-01-08T10:59:23.293Z,76.69
2023-01-08T11:01:55.912Z,76.53
2023-01-08T11:04:32.498Z,76.41
2023-01-08T11:07:03.121Z,76.28
2023-01-08T11:09:34.097Z,76.37
2023-01-08T11:12:02.091Z,76.35
2023-01-08T11:14:36.544Z,76.13
2023-01-08T11:17:11.291Z,75.94
2023-01-08T11:19:39.988Z,75.80
2023-01-08T11:22:20.176Z,75.69
2023-01-08T11:24:50.363Z,75.57
2023-01-08T11:27:37.060Z,75.55
2023-01-08T11:30:12.222Z,75.44
2023-01-08T11:32:42.118Z,75.30
2023-01-08T11:35:31.353Z,75.31
2023-01-08T11:38:02.205Z,75.19
2023-01-08T11:40:36.181Z,75.10
2023-01-08T11:43:30.716Z,75.25
2023-01-08T11:46:17.816Z,75.11
2023-01-08T11:48:51.673Z,75.15
2023-01-08T11:51:41.538Z,75.31
2023-01-08T11:54:47.189Z,75.23
2023-01-08T11:57:33.722Z,74.98
2023-01-08T12:00:38.231Z,75.06
2023-01-08T12:03:26.230Z,74.92
2023-01-08T12:06:44.165Z,74.95
2023-01-08T12:09:36.480Z,74.99
2023-01-08T12:12:33.287Z,74.79
2023-01-08T12:15:10.233Z,74.53
2023-01-08T12:18:13.532Z,74.57
2023-01-08T12:20:59.318Z,74.59
2023-01-08T12:23:45.692Z,74.60
2023-01-08T12:26:25.930Z,74.53
2023-01-08T12:29:15.317Z,74.56
2023-01-08T12:32:22.212Z,74.49
2023-01-08T12:35:29.414Z,74.37
2023-01-08T12:38:29.718Z,74.48
2023-01-08T12:41:21.100Z,74.50
2023-01-08T12:44:05.643Z,74.50
2023-01-08T12:46:39.514Z,74.45
2023-01-08T12:49:11.131Z,74.50
2023-01-08T12:51:56.272Z,74.36
2023-01-08T12:54:26.981Z,74.47
2023-01-08T12:57:03.877Z,74.41
2023-01-08T12:59:45.578Z,74.40
2023-01-08T13:02:49.822Z,74.38
2023-01-08T13:05:21.018Z,74.40
2023-01-08T13:07:53.948Z,74.43
2023-01-08T13:10:37.167Z,74.37
2023-01-08T13:13:07.429Z,74.46
2023-01-08T13:15:36.452Z,74.33
2023-01-08T13:18:15.322Z,74.37
2023-01-08T13:20:54.154Z,74.43
2023-01-08T13:23:26.170Z,74.42
2023-01-08T13:25:57.348Z,74.57
2023-01-08T13:28:25.181Z,74.60
2023-01-08T13:30:55.826Z,74.66
2023-01-08T13:33:36.242Z,74.61
2023-01-08T13:36:13.120Z,74.74
2023-01-08T13:38:41.275Z,74.55
2023-01-08T13:41:56.634Z,74.57
2023-01-08T13:44:34.564Z,74.55
2023-01-08T13:47:15.632Z,74.58
2023-01-08T13:49:47.155Z,74.64
2023-01-08T13:52:41.125Z,74.55
2023-01-08T13:55:36.968Z,74.47
2023-01-08T13:58:12.161Z,74.53
2023-01-08T14:00:43.064Z,74.65
2023-01-08T14:03:31.410Z,74.72
2023-01-08T14:06:22.749Z,74.47
2023-01-08T14:08:59.120Z,74.43
2023-01-08T14:11:42.544Z,74.31
2023-01-08T14:14:16.176Z,74.32
2023-01-08T14:16:45.156Z,74.33
2023-01-08T14:19:22.481Z,74.37
2023-01-08T14:21:52.545Z,74.19
2023-01-08T14:24:23.555Z,74.10
2023-01-08T14:26:57.644Z,74.09
2023-01-08T14:29:32.904Z,74.19
2023-01-08T14:32:01.482Z,74.23
2023-01-08T14:34:31.891Z,74.20
2023-01-08T14:36:59.807Z,74.29
2023-01-08T14:39:35.602Z,74.23
2023-01-08T14:42:29.219Z,74.25
2023-01-08T14:45:00.182Z,74.38
2023-01-08T14:47:39.066Z,74.44
2023-01-08T14:50:07.933Z,74.27
2023-01-08T14:52:40.541Z,74.30
2023-01-08T14:55:15.476Z,74.35
2023-01-08T14:57:45.901Z,74.34
2023-01-08T15:00:21.463Z,74.44
2023-01-08T15:02:49.880Z,74.37
2023-01-08T15:05:26.003Z,74.17
2023-01-08T15:08:25.130Z,74.17
2023-01-08T15:11:02.299Z,74.11
2023-01-08T15:13:34.624Z,74.22
2023-01-08T15:16:11.533Z,74.29
2023-01-08T15:18:46.078Z,74.32
2023-01-08T15:21:22.439Z,74.29
2023-01-08T15:23:54.782Z,74.25
2023-01-08T15:26:23.592Z,74.26
2023-01-08T15:28:53.826Z,74.34
2023-01-08T15:31:30.480Z,74.33
2023-01-08T15:34:00.553Z,74.35
2023-01-08T15:36:28.482Z,74.35
2023-01-08T15:38:56.313Z,74.43
2023-01-08T15:41:43.058Z,74.47
2023-01-08T15:44:15.293Z,74.41
2023-01-08T15:46:43.288Z,74.29
2023-01-08T15:49:11.208Z,74.29
2023-01-08T15:51:45.259Z,74.29
2023-01-08T15:54:13.797Z,74.31
2023-01-08T15:56:41.905Z,74.24
2023-01-08T15:59:09.961Z,74.41
2023-01-08T16:01:38.568Z,74.40
2023-01-08T16:04:06.581Z,74.32
2023-01-08T16:06:36.174Z,74.29
2023-01-08T16:09:04.087Z,74.18
2023-01-08T16:11:32.000Z,74.21
2023-01-08T16:13:59.887Z,74.19
2023-01-08T16:16:27.827Z,74.25
2023-01-08T16:18:55.890Z,74.17
2023-01-08T16:21:23.767Z,74.27
2023-01-08T16:23:51.631Z,74.26
2023-01-08T16:26:19.615Z,74.23
2023-01-08T16:28:47.954Z,74.23
2023-01-08T16:31:16.168Z,74.16
2023-01-08T16:33:44.056Z,74.07
2023-01-08T16:36:11.940Z,74.13
2023-01-08T16:38:39.800Z,74.11
2023-01-08T16:41:08.044Z,74.09
2023-01-08T16:43:40.842Z,74.04
2023-01-08T16:46:13.330Z,74.21
2023-01-08T16:48:42.602Z,74.19
2023-01-08T16:51:11.331Z,74.13
2023-01-08T16:53:39.803Z,74.27
2023-01-08T16:56:09.177Z,74.29
2023-01-08T16:58:37.172Z,74.26
2023-01-08T17:01:12.402Z,74.22
2023-01-08T17:03:40.555Z,74.20
2023-01-08T17:06:11.288Z,74.24
2023-01-08T17:08:42.455Z,74.18
2023-01-08T17:11:15.151Z,74.22
2023-01-08T17:13:43.564Z,74.26
2023-01-08T17:16:14.551Z,74.17
2023-01-08T17:18:42.716Z,74.19
2023-01-08T17:21:13.320Z,74.23
2023-01-08T17:23:41.768Z,74.14
2023-01-08T17:26:13.886Z,74.17
2023-01-08T17:28:41.797Z,74.20
2023-01-08T17:31:12.683Z,74.13
2023-01-08T17:33:40.900Z,74.05
2023-01-08T17:36:11.053Z,74.10
2023-01-08T17:38:39.375Z,74.14
2023-01-08T17:41:09.206Z,74.12
2023-01-08T17:43:38.495Z,74.20
2023-01-08T17:46:07.351Z,74.27
2023-01-08T17:48:35.339Z,74.19
2023-01-08T17:51:08.598Z,74.20
2023-01-08T17:53:37.217Z,74.12
2023-01-08T17:56:06.459Z,74.11
2023-01-08T17:58:34.681Z,74.23
2023-01-08T18:01:02.593Z,74.26
2023-01-08T18:03:30.529Z,74.29
2023-01-08T18:05:58.508Z,74.18
2023-01-08T18:08:26.578Z,74.18
2023-01-08T18:10:54.398Z,74.30
2023-01-08T18:13:22.400Z,74.13
2023-01-08T18:15:50.272Z,74.35
2023-01-08T18:18:18.107Z,74.38
2023-01-08T18:20:45.929Z,74.39
2023-01-08T18:23:13.736Z,74.35
2023-01-08T18:25:41.672Z,74.34
2023-01-08T18:28:09.576Z,74.30
2023-01-08T18:30:37.653Z,74.32
2023-01-08T18:33:05.650Z,74.35
2023-01-08T18:35:33.575Z,74.25
2023-01-08T18:38:01.540Z,74.30
2023-01-08T18:40:29.835Z,74.31
2023-01-08T18:42:57.753Z,74.35
2023-01-08T18:45:25.610Z,74.31
2023-01-08T18:47:53.800Z,74.37
2023-01-08T18:50:21.739Z,74.43
2023-01-08T18:52:49.640Z,74.30
2023-01-08T18:55:17.565Z,74.35
2023-01-08T18:57:45.530Z,74.40
2023-01-08T19:00:13.951Z,74.39
2023-01-08T19:02:41.815Z,74.38
2023-01-08T19:05:10.359Z,74.40
2023-01-08T19:07:38.448Z,74.40
2023-01-08T19:10:06.519Z,74.37
2023-01-08T19:12:35.131Z,74.42
2023-01-08T19:15:03.158Z,74.30
2023-01-08T19:17:31.922Z,74.30
2023-01-08T19:20:00.039Z,74.22
2023-01-08T19:22:28.696Z,74.16
2023-01-08T19:24:56.823Z,74.22
2023-01-08T19:27:24.996Z,74.22
2023-01-08T19:29:52.957Z,74.28
2023-01-08T19:32:21.060Z,74.17
2023-01-08T19:34:49.007Z,74.16
2023-01-08T19:37:17.206Z,74.13
2023-01-08T19:39:45.482Z,74.10
2023-01-08T19:42:51.541Z,74.12
2023-01-08T19:45:19.541Z,74.08
2023-01-08T19:47:47.417Z,73.97
2023-01-08T19:50:15.356Z,74.02
2023-01-08T19:52:43.408Z,74.07
2023-01-08T19:55:11.358Z,74.07
2023-01-08T19:57:39.247Z,74.19
2023-01-08T20:00:07.976Z,74.16
2023-01-08T20:02:39.771Z,74.29
2023-01-08T20:05:09.296Z,74.19
2023-01-08T20:07:37.252Z,74.34
2023-01-08T20:10:05.977Z,74.36
2023-01-08T20:12:36.263Z,74.27
2023-01-08T20:15:05.656Z,74.38
2023-01-08T20:17:33.593Z,74.54
2023-01-08T20:20:01.493Z,74.51
2023-01-08T20:22:31.129Z,74.53
2023-01-08T20:24:59.063Z,74.50
2023-01-08T20:27:27.045Z,74.44
2023-01-08T20:29:55.015Z,74.53
2023-01-08T20:32:23.597Z,74.53
2023-01-08T20:34:51.538Z,74.48
2023-01-08T20:37:19.485Z,74.45
2023-01-08T20:39:47.562Z,74.54
2023-01-08T20:42:22.004Z,74.60
2023-01-08T20:44:55.445Z,74.66
2023-01-08T20:47:23.558Z,74.69
2023-01-08T20:49:51.583Z,74.73
2023-01-08T20:52:21.859Z,74.80
2023-01-08T20:54:49.776Z,74.84
2023-01-08T20:57:17.732Z,74.87
2023-01-08T20:59:45.711Z,74.87
2023-01-08T21:02:13.830Z,74.83
2023-01-08T21:04:43.769Z,74.97
2023-01-08T21:07:12.135Z,75.02
2023-01-08T21:09:40.483Z,75.08
2023-01-08T21:12:08.664Z,75.09
2023-01-08T21:14:36.587Z,75.15
2023-01-08T21:17:04.624Z,75.15
2023-01-08T21:19:32.542Z,75.31
2023-01-08T21:22:00.403Z,75.21
2023-01-08T21:24:28.400Z,75.32
2023-01-08T21:26:56.382Z,75.24
2023-01-08T21:29:24.847Z,75.29
2023-01-08T21:31:52.775Z,75.32
2023-01-08T21:34:21.553Z,75.28
2023-01-08T21:36:49.511Z,75.30
2023-01-08T21:39:17.480Z,75.35
2023-01-08T21:42:03.732Z,75.47
2023-01-08T21:44:50.584Z,75.42
2023-01-08T21:47:18.604Z,75.36
2023-01-08T21:49:46.595Z,75.36
2023-01-08T21:52:33.614Z,75.35
2023-01-08T21:55:02.091Z,75.31
2023-01-08T21:57:30.069Z,75.35
2023-01-08T21:59:58.028Z,75.44
2023-01-08T22:02:25.939Z,75.63
2023-01-08T22:04:56.026Z,75.59
2023-01-08T22:07:25.203Z,75.56
2023-01-08T22:09:53.350Z,75.63
2023-01-08T22:12:22.926Z,75.62
2023-01-08T22:14:53.530Z,75.53
2023-01-08T22:17:26.044Z,75.60
2023-01-08T22:19:54.069Z,75.53
2023-01-08T22:22:22.085Z,75.49
2023-01-08T22:24:53.096Z,75.54
2023-01-08T22:27:22.155Z,75.57
2023-01-08T22:29:50.260Z,75.57
2023-01-08T22:32:18.258Z,75.63
2023-01-08T22:34:46.509Z,75.67
2023-01-08T22:37:14.484Z,75.68
2023-01-08T22:39:42.461Z,75.64
2023-01-08T22:42:10.417Z,75.69
2023-01-08T22:44:38.356Z,75.84
2023-01-08T22:47:08.457Z,75.82
2023-01-08T22:49:37.754Z,75.82
2023-01-08T22:52:06.314Z,75.75
2023-01-08T22:54:34.207Z,75.87
2023-01-08T22:57:02.093Z,75.92
2023-01-08T22:59:29.947Z,75.97
2023-01-08T23:01:57.863Z,76.16
2023-01-08T23:04:26.044Z,76.11
2023-01-08T23:06:53.957Z,76.08
2023-01-08T23:09:21.861Z,76.06
2023-01-08T23:11:49.704Z,76.08
2023-01-08T23:14:17.607Z,76.09
2023-01-08T23:16:45.695Z,76.13
2023-01-08T23:19:14.042Z,76.36
2023-01-08T23:21:42.024Z,76.47
2023-01-08T23:24:13.164Z,76.39
2023-01-08T23:26:42.255Z,76.43
2023-01-08T23:29:10.861Z,76.51
2023-01-08T23:31:39.103Z,76.55
2023-01-08T23:34:07.615Z,76.47
2023-01-08T23:36:35.529Z,76.47
2023-01-08T23:39:04.367Z,76.42
2023-01-08T23:41:34.917Z,76.64
2023-01-08T23:44:14.830Z,76.70
2023-01-08T23:46:43.053Z,76.77
2023-01-08T23:49:11.711Z,76.83
2023-01-08T23:51:42.293Z,76.82
2023-01-08T23:54:11.479Z,77.05
2023-01-08T23:56:40.428Z,76.95
2023-01-08T23:59:08.426Z,76.89
